Time;durP1;ratioP1;P1;durP2;ratioP2;P2;SDS_P1;SDS_P2;PMS_P1;PMS_P2;Temp;Humidity;BMP_temperature;BMP_pressure;BME280_temperature;BME280_humidity;BME280_pressure;Samples;Min_cycle;Max_cycle;Signal;HPM_P1;HPM_P2
2021/06/10 00:02:22;;;;;;;14.90;13.48;;;;;;;16.20;75.30;101442.88;5106670;27;20054;-53
2021/06/10 00:04:47;;;;;;;14.70;13.23;;;;;;;16.09;75.95;101438.66;5103206;27;20043;-53
2021/06/10 00:07:16;;;;;;;14.32;12.93;;;;;;;16.18;75.07;101440.28;5106348;27;20027;-51
2021/06/10 00:09:43;;;;;;;15.85;13.50;;;;;;;16.12;76.19;101433.34;5113560;27;20445;-52
2021/06/10 00:12:10;;;;;;;14.32;12.85;;;;;;;16.13;75.83;101426.28;5107389;27;20048;-52
2021/06/10 00:14:36;;;;;;;14.35;12.95;;;;;;;16.07;75.39;101429.03;5099462;27;20112;-50
2021/06/10 00:17:02;;;;;;;13.68;12.38;;;;;;;16.14;75.33;101431.56;5103488;27;20487;-55
2021/06/10 00:19:28;;;;;;;14.02;12.52;;;;;;;16.08;75.57;101436.91;5107370;27;20509;-51
2021/06/10 00:21:54;;;;;;;14.70;13.00;;;;;;;15.98;75.99;101436.19;5104264;27;20460;-51
2021/06/10 00:24:20;;;;;;;14.55;13.05;;;;;;;15.79;76.53;101437.31;5111455;27;20694;-52
2021/06/10 00:26:45;;;;;;;14.80;13.30;;;;;;;15.75;76.70;101441.75;5105031;27;20126;-50
2021/06/10 00:29:11;;;;;;;16.23;13.10;;;;;;;15.73;76.36;101447.94;5106104;27;20043;-52
2021/06/10 00:31:37;;;;;;;14.45;12.85;;;;;;;15.71;76.94;101447.09;5105570;27;20608;-51
2021/06/10 00:34:03;;;;;;;14.50;13.02;;;;;;;15.64;76.83;101451.56;5104331;27;20023;-51
2021/06/10 00:36:29;;;;;;;16.48;14.43;;;;;;;15.51;77.39;101453.50;5103921;27;20622;-52
2021/06/10 00:38:55;;;;;;;15.20;13.65;;;;;;;15.46;77.60;101448.28;5104302;27;20054;-54
2021/06/10 00:41:20;;;;;;;15.18;13.68;;;;;;;15.47;77.69;101449.16;5107255;27;20027;-52
2021/06/10 00:43:47;;;;;;;14.80;13.20;;;;;;;15.48;77.43;101451.78;5104882;27;20447;-54
2021/06/10 00:46:13;;;;;;;14.95;13.45;;;;;;;15.58;77.29;101455.16;5107484;27;20023;-55
2021/06/10 00:48:39;;;;;;;15.55;13.90;;;;;;;15.39;77.73;101448.38;5106209;27;20510;-52
2021/06/10 00:51:05;;;;;;;16.60;14.55;;;;;;;15.34;77.59;101448.47;5106026;27;20413;-52
2021/06/10 00:53:32;;;;;;;16.30;14.60;;;;;;;15.26;78.24;101450.31;5106636;27;20066;-54
2021/06/10 00:56:00;;;;;;;15.90;14.27;;;;;;;15.13;78.29;101445.19;5111276;27;20043;-52
2021/06/10 00:58:28;;;;;;;16.15;14.02;;;;;;;15.24;78.03;101447.66;5103702;27;20073;-52
2021/06/10 01:00:54;;;;;;;17.00;14.70;;;;;;;15.22;78.25;101441.56;5087832;27;20035;-53
2021/06/10 01:03:20;;;;;;;16.75;14.27;;;;;;;15.20;78.27;101435.41;5104410;27;20397;-55
2021/06/10 01:05:57;;;;;;;16.15;14.52;;;;;;;15.29;78.43;101435.31;5105677;27;20454;-50
2021/06/10 01:08:56;;;;;;;18.08;14.30;;;;;;;15.27;78.89;101446.75;5102529;27;20690;-51
2021/06/10 01:11:41;;;;;;;15.80;14.20;;;;;;;15.20;78.32;101440.69;5106692;27;20043;-52
2021/06/10 01:14:41;;;;;;;17.52;14.32;;;;;;;15.22;78.78;101436.28;5106361;27;20035;-51
2021/06/10 01:17:10;;;;;;;15.57;13.82;;;;;;;15.32;78.27;101432.63;5106706;27;20046;-53
2021/06/10 01:19:42;;;;;;;18.75;15.48;;;;;;;15.18;78.95;101436.34;5106305;27;20039;-54
2021/06/10 01:22:19;;;;;;;15.38;13.77;;;;;;;15.30;77.93;101436.22;5104814;27;20039;-53
2021/06/10 01:24:49;;;;;;;16.08;14.38;;;;;;;15.29;78.29;101432.69;5104564;27;20605;-51
2021/06/10 01:27:27;;;;;;;16.00;14.35;;;;;;;15.24;77.99;101431.84;5115547;27;20093;-52
2021/06/10 01:30:02;;;;;;;15.50;13.93;;;;;;;15.49;76.62;101431.56;5111973;27;20043;-53
2021/06/10 01:32:30;;;;;;;15.95;14.25;;;;;;;15.39;77.32;101435.22;5103113;27;20042;-53
2021/06/10 01:34:57;;;;;;;15.65;13.98;;;;;;;15.19;77.76;101433.69;5104619;27;20035;-50
2021/06/10 01:37:25;;;;;;;16.38;14.55;;;;;;;15.10;78.38;101429.38;5106050;27;20063;-53
2021/06/10 01:39:52;;;;;;;15.93;14.07;;;;;;;15.09;79.06;101432.03;5105358;27;20042;-51
2021/06/10 01:42:18;;;;;;;16.98;15.18;;;;;;;15.03;78.96;101434.75;5104893;27;20051;-54
2021/06/10 01:44:47;;;;;;;16.80;15.00;;;;;;;14.86;79.45;101427.06;5105569;27;20039;-52
2021/06/10 01:47:16;;;;;;;16.30;14.43;;;;;;;15.24;77.08;101431.00;5102784;27;20523;-54
2021/06/10 01:49:43;;;;;;;15.80;14.15;;;;;;;15.04;78.13;101429.47;5104629;27;20412;-53
2021/06/10 01:52:09;;;;;;;16.98;15.18;;;;;;;15.04;78.91;101425.97;5104466;27;20078;-51
2021/06/10 01:54:36;;;;;;;16.20;14.50;;;;;;;14.84;79.32;101419.13;5107471;27;20140;-53
2021/06/10 01:57:03;;;;;;;17.35;14.90;;;;;;;14.84;78.83;101419.13;5105370;27;20031;-54
2021/06/10 01:59:32;;;;;;;17.02;15.23;;;;;;;14.89;79.12;101419.13;5101865;27;20474;-52
2021/06/10 02:02:00;;;;;;;16.08;13.82;;;;;;;14.89;78.51;101417.34;5089603;27;20365;-52
2021/06/10 02:04:26;;;;;;;16.70;14.98;;;;;;;14.82;79.49;101415.66;5104645;27;20024;-53
2021/06/10 02:06:55;;;;;;;15.95;14.23;;;;;;;14.70;80.21;101419.28;5105774;27;20574;-50
2021/06/10 02:09:22;;;;;;;16.08;14.27;;;;;;;14.69;79.85;101421.94;5090607;27;20126;-51
2021/06/10 02:11:50;;;;;;;15.57;13.98;;;;;;;14.97;78.30;101419.91;5106434;27;20031;-51
2021/06/10 02:14:19;;;;;;;14.48;13.00;;;;;;;15.01;78.93;101420.72;5108464;27;20035;-52
2021/06/10 02:16:47;;;;;;;16.23;14.23;;;;;;;15.04;78.99;101418.09;5109366;27;20557;-54
2021/06/10 02:19:16;;;;;;;17.17;13.57;;;;;;;15.09;77.27;101418.88;5125494;27;20088;-54
2021/06/10 02:21:42;;;;;;;16.02;14.32;;;;;;;14.88;80.28;101417.34;5107577;27;20681;-54
2021/06/10 02:24:11;;;;;;;15.95;14.25;;;;;;;14.80;79.05;101410.41;5103773;28;20066;-54
2021/06/10 02:26:38;;;;;;;15.73;14.02;;;;;;;14.63;79.95;101413.22;5109113;27;20039;-52
2021/06/10 02:29:04;;;;;;;15.23;13.63;;;;;;;14.56;79.95;101414.13;5105408;27;20059;-54
2021/06/10 02:31:30;;;;;;;16.15;14.48;;;;;;;14.57;80.58;101407.13;5105223;27;20046;-52
2021/06/10 02:33:56;;;;;;;16.27;14.25;;;;;;;14.46;81.26;101412.47;5107750;28;20032;-52
2021/06/10 02:36:22;;;;;;;16.20;14.52;;;;;;;14.36;81.01;101414.31;5103737;27;20671;-51
2021/06/10 02:38:59;;;;;;;17.45;14.85;;;;;;;14.50;81.17;101416.81;5108125;27;20468;-51
2021/06/10 02:41:27;;;;;;;16.45;14.75;;;;;;;14.27;81.99;101412.66;5109420;27;20035;-52
2021/06/10 02:43:55;;;;;;;16.73;14.48;;;;;;;14.48;80.96;101408.94;5108631;27;20524;-51
2021/06/10 02:46:21;;;;;;;16.60;14.65;;;;;;;14.80;79.07;101414.78;5105922;27;20098;-52
2021/06/10 02:48:52;;;;;;;16.25;14.65;;;;;;;14.50;79.73;101416.81;5108532;27;20052;-50
2021/06/10 02:51:18;;;;;;;16.65;14.90;;;;;;;14.33;81.38;101414.34;5106325;27;20177;-52
2021/06/10 02:53:46;;;;;;;17.20;15.45;;;;;;;14.02;82.88;101408.44;5103822;27;20442;-53
2021/06/10 02:56:15;;;;;;;17.60;15.77;;;;;;;14.18;82.13;101409.19;5105765;27;20046;-52
2021/06/10 02:58:42;;;;;;;16.50;14.75;;;;;;;14.23;80.78;101403.03;5109672;27;20066;-51
2021/06/10 03:01:09;;;;;;;16.85;15.05;;;;;;;14.39;81.03;101411.66;5110013;27;20391;-53
2021/06/10 03:03:36;;;;;;;17.27;15.32;;;;;;;14.26;81.08;101412.63;5106206;27;20984;-50
2021/06/10 03:06:04;;;;;;;17.52;15.73;;;;;;;14.11;82.47;101418.91;5075047;28;20051;-50
2021/06/10 03:08:31;;;;;;;19.05;16.50;;;;;;;14.01;82.89;101411.94;5093078;27;20044;-52
2021/06/10 03:11:00;;;;;;;17.70;15.65;;;;;;;13.89;83.44;101413.78;5096787;27;20336;-54
2021/06/10 03:13:27;;;;;;;;;;;;;;;13.88;83.12;101422.53;5115453;27;20471;-53
2021/06/10 03:15:53;;;;;;;17.05;14.65;;;;;;;14.14;81.21;101411.84;5112302;27;20311;-54
2021/06/10 03:18:21;;;;;;;18.77;16.45;;;;;;;14.13;81.58;101411.88;5108755;27;20457;-55
2021/06/10 03:20:47;;;;;;;17.35;15.55;;;;;;;14.01;82.67;101419.84;5094980;27;20173;-53
2021/06/10 03:23:14;;;;;;;17.95;15.90;;;;;;;14.01;82.21;101419.84;5111737;27;20055;-52
2021/06/10 03:25:40;;;;;;;21.83;17.25;;;;;;;13.91;82.85;101416.41;5111723;27;20126;-55
2021/06/10 03:28:07;;;;;;;19.10;15.95;;;;;;;13.76;83.89;101417.34;5109894;27;20034;-51
2021/06/10 03:30:34;;;;;;;17.85;16.05;;;;;;;13.69;83.59;101418.28;5107337;27;20042;-52
2021/06/10 03:33:06;;;;;;;17.83;16.02;;;;;;;13.71;83.19;101414.78;5112818;27;20118;-53
2021/06/10 03:35:34;;;;;;;17.13;15.27;;;;;;;13.93;81.25;101412.88;5106771;27;20095;-54
2021/06/10 03:38:00;;;;;;;17.20;15.40;;;;;;;14.07;80.81;101418.03;5110900;27;20035;-53
2021/06/10 03:40:27;;;;;;;17.77;15.18;;;;;;;13.92;81.20;101419.00;5115582;27;20439;-55
2021/06/10 03:42:53;;;;;;;17.83;15.93;;;;;;;13.92;81.34;101423.41;5111323;27;20028;-52
2021/06/10 03:45:19;;;;;;;17.90;16.00;;;;;;;13.89;82.35;101426.06;5105406;27;20044;-50
2021/06/10 03:47:46;;;;;;;17.42;15.45;;;;;;;14.05;81.00;101419.81;5110793;27;20389;-52
2021/06/10 03:50:13;;;;;;;17.00;15.30;;;;;;;13.87;82.15;101426.03;5111333;27;20039;-53
2021/06/10 03:52:40;;;;;;;17.50;15.80;;;;;;;13.77;82.19;101417.34;5107821;27;20388;-53
2021/06/10 03:55:07;;;;;;;17.77;15.95;;;;;;;13.88;82.10;101417.28;5109774;27;20028;-53
2021/06/10 03:57:35;;;;;;;17.97;15.37;;;;;;;13.81;82.15;101420.84;5113171;27;20040;-51
2021/06/10 04:00:03;;;;;;;18.52;15.68;;;;;;;13.70;82.08;101417.41;5104681;27;20200;-53
2021/06/10 04:02:31;;;;;;;17.92;15.43;;;;;;;13.55;83.31;101416.59;5108626;27;20066;-50
2021/06/10 04:04:57;;;;;;;19.25;15.98;;;;;;;13.66;82.24;101413.06;5108169;27;20040;-54
2021/06/10 04:07:23;;;;;;;17.83;15.77;;;;;;;13.78;81.93;101421.72;5089876;27;20047;-54
2021/06/10 04:09:48;;;;;;;17.83;15.93;;;;;;;13.74;81.91;101416.50;5111833;27;20113;-50
2021/06/10 04:12:14;;;;;;;18.92;16.08;;;;;;;13.61;82.81;101407.84;5113691;27;20115;-53
2021/06/10 04:14:40;;;;;;;18.63;16.58;;;;;;;13.50;83.44;101410.50;5114523;27;20031;-50
2021/06/10 04:17:07;;;;;;;19.45;16.67;;;;;;;13.57;83.22;101406.09;5110513;27;20042;-52
2021/06/10 04:19:34;;;;;;;18.08;16.02;;;;;;;13.56;83.25;101406.97;5114364;27;20046;-53
2021/06/10 04:22:00;;;;;;;16.75;15.05;;;;;;;13.66;82.06;101403.41;5111622;27;20035;-52
2021/06/10 04:24:27;;;;;;;16.38;14.27;;;;;;;13.79;81.25;101398.97;5087003;27;20047;-55
2021/06/10 04:26:54;;;;;;;17.05;15.20;;;;;;;13.84;81.33;101401.56;5115340;27;20047;-52
2021/06/10 04:29:20;;;;;;;18.83;16.40;;;;;;;13.71;82.08;101404.25;5117932;27;20130;-51
2021/06/10 04:31:49;;;;;;;18.95;16.45;;;;;;;13.61;82.90;101407.84;5120423;27;20046;-52
2021/06/10 04:34:16;;;;;;;18.20;16.02;;;;;;;13.80;81.43;101405.94;5064269;27;20051;-55
2021/06/10 04:36:42;;;;;;;18.08;16.02;;;;;;;13.87;81.54;101405.00;5115868;27;20054;-52
2021/06/10 04:39:09;;;;;;;18.02;15.90;;;;;;;13.76;81.58;101413.00;5107090;27;20081;-53
2021/06/10 04:41:36;;;;;;;16.73;14.93;;;;;;;13.98;80.99;101407.59;5106610;27;21051;-53
2021/06/10 04:44:03;;;;;;;17.15;15.10;;;;;;;13.90;81.56;101420.78;5112082;27;20043;-55
2021/06/10 04:46:30;;;;;;;17.50;15.70;;;;;;;13.79;83.48;101422.63;5110291;27;20117;-51
2021/06/10 04:48:57;;;;;;;17.25;14.75;;;;;;;13.90;81.82;101423.41;5114512;27;20027;-51
2021/06/10 04:51:25;;;;;;;17.10;15.37;;;;;;;14.12;81.47;101431.13;5106034;27;20530;-52
2021/06/10 04:53:54;;;;;;;18.52;16.73;;;;;;;14.14;80.92;101429.38;5108199;27;20053;-52
2021/06/10 04:56:21;;;;;;;17.47;15.67;;;;;;;14.06;81.34;101429.44;5108041;27;20195;-52
2021/06/10 04:58:47;;;;;;;15.95;14.35;;;;;;;14.05;82.56;101434.69;5109256;27;20365;-51
2021/06/10 05:01:13;;;;;;;20.65;15.77;;;;;;;14.13;82.20;101433.75;5108185;27;20130;-52
2021/06/10 05:03:40;;;;;;;16.08;14.38;;;;;;;14.47;78.94;101432.63;5111449;27;20648;-51
2021/06/10 05:06:10;;;;;;;16.35;14.75;;;;;;;14.36;79.79;101434.47;5118108;27;20070;-53
2021/06/10 05:08:37;;;;;;;17.20;15.38;;;;;;;14.36;79.82;101432.72;5114989;27;20039;-51
2021/06/10 05:11:03;;;;;;;17.80;15.95;;;;;;;14.31;80.59;101437.13;5110544;27;20054;-55
2021/06/10 05:13:30;;;;;;;20.20;16.58;;;;;;;14.27;81.56;101431.06;5111711;27;20104;-52
2021/06/10 05:15:56;;;;;;;19.85;17.08;;;;;;;14.26;81.54;101434.56;5122369;27;20023;-54
2021/06/10 05:18:22;;;;;;;18.58;16.13;;;;;;;14.30;81.23;101427.50;5118964;27;20070;-51
2021/06/10 05:20:49;;;;;;;17.38;15.50;;;;;;;14.40;80.99;101430.91;5107292;27;20039;-55
2021/06/10 05:23:17;;;;;;;18.33;16.42;;;;;;;14.39;81.58;101432.69;5110785;27;20054;-53
2021/06/10 05:25:44;;;;;;;18.73;16.25;;;;;;;14.37;82.79;101429.22;5109429;27;20039;-52
2021/06/10 05:28:11;;;;;;;17.27;15.48;;;;;;;14.44;82.19;101432.66;5107109;27;20049;-51
2021/06/10 05:30:37;;;;;;;15.52;13.88;;;;;;;14.55;79.98;101432.56;5105345;27;20039;-54
2021/06/10 05:33:02;;;;;;;16.80;14.75;;;;;;;14.60;80.46;101418.47;5115856;27;20035;-53
2021/06/10 05:35:31;;;;;;;18.40;16.33;;;;;;;14.66;81.37;101424.59;5085278;28;20047;-52
2021/06/10 05:38:00;;;;;;;15.45;13.65;;;;;;;14.81;78.08;101421.81;5085864;28;20236;-53
2021/06/10 05:40:28;;;;;;;17.92;15.30;;;;;;;15.00;76.86;101422.50;5087692;28;20032;-52
2021/06/10 05:42:54;;;;;;;17.38;14.57;;;;;;;14.97;79.61;101427.81;5088366;28;20032;-51
2021/06/10 05:45:20;;;;;;;18.73;16.67;;;;;;;15.06;82.00;101421.56;5085809;28;20071;-53
2021/06/10 05:47:46;;;;;;;18.75;16.83;;;;;;;15.09;81.84;101432.03;5082656;28;20032;-53
2021/06/10 05:50:14;;;;;;;20.98;17.05;;;;;;;15.13;81.14;101433.75;5085990;28;20136;-55
2021/06/10 05:52:42;;;;;;;17.23;15.43;;;;;;;15.20;81.26;101429.28;5080243;28;20099;-50
2021/06/10 05:55:09;;;;;;;18.98;16.85;;;;;;;15.22;80.54;101438.94;5079619;28;20040;-52
2021/06/10 05:57:36;;;;;;;17.55;15.00;;;;;;;15.28;80.20;101437.97;5076941;28;20126;-51
2021/06/10 06:00:06;;;;;;;22.50;16.33;;;;;;;15.38;78.64;101446.63;5093448;27;20689;-54
2021/06/10 06:02:38;;;;;;;16.17;14.48;;;;;;;15.46;76.53;101436.88;5083558;28;20067;-53
2021/06/10 06:05:05;;;;;;;16.05;14.32;;;;;;;15.54;76.24;101432.38;5094289;27;20031;-52
2021/06/10 06:07:31;;;;;;;16.00;13.77;;;;;;;15.72;74.73;101428.63;5114618;27;20187;-53
2021/06/10 06:09:57;;;;;;;18.02;13.90;;;;;;;16.06;73.86;101436.09;5117788;27;20036;-53
2021/06/10 06:12:23;;;;;;;16.50;13.45;;;;;;;15.95;73.88;101436.25;5105803;27;20631;-54
2021/06/10 06:14:49;;;;;;;15.88;13.05;;;;;;;15.92;73.86;101438.94;5106249;27;20089;-53
2021/06/10 06:17:17;;;;;;;13.85;12.10;;;;;;;15.90;74.67;101432.78;5102100;27;20047;-54
2021/06/10 06:19:44;;;;;;;14.93;11.73;;;;;;;15.94;73.47;101442.41;5091072;27;20462;-53
2021/06/10 06:22:11;;;;;;;13.27;11.27;;;;;;;15.98;73.88;101443.25;5107584;27;20019;-51
2021/06/10 06:24:38;;;;;;;14.88;10.85;;;;;;;16.03;74.48;101446.66;5104924;27;20031;-54
2021/06/10 06:27:05;;;;;;;14.85;12.45;;;;;;;16.09;76.10;101446.59;5105074;27;20104;-55
2021/06/10 06:29:31;;;;;;;18.17;12.48;;;;;;;16.21;73.34;101442.00;5107547;27;20135;-56
2021/06/10 06:31:58;;;;;;;14.48;12.98;;;;;;;16.26;72.93;101448.94;5108094;27;20043;-53
2021/06/10 06:34:25;;;;;;;14.13;11.48;;;;;;;16.40;75.05;101453.16;5102857;27;20035;-53
2021/06/10 06:36:51;;;;;;;13.85;11.32;;;;;;;16.50;75.13;101445.06;5106022;27;20031;-54
2021/06/10 06:39:17;;;;;;;14.07;11.60;;;;;;;16.71;72.24;101444.69;5106363;27;20035;-54
2021/06/10 06:41:43;;;;;;;14.05;10.80;;;;;;;16.77;70.93;101453.38;5104890;27;20050;-54
2021/06/10 06:44:10;;;;;;;14.55;11.85;;;;;;;16.74;69.76;101447.25;5102060;27;20069;-54
2021/06/10 06:46:37;;;;;;;13.18;10.25;;;;;;;16.89;71.75;101441.75;5107133;27;20046;-52
2021/06/10 06:49:04;;;;;;;16.48;12.82;;;;;;;17.00;68.86;101444.19;5108279;28;20116;-56
2021/06/10 06:51:29;;;;;;;14.05;10.82;;;;;;;16.98;71.51;101446.84;5106010;27;20043;-53
2021/06/10 06:53:56;;;;;;;13.32;11.25;;;;;;;17.01;71.90;101445.94;5108294;27;20066;-52
2021/06/10 06:56:24;;;;;;;14.45;12.95;;;;;;;17.05;68.96;101446.75;5107371;27;20043;-52
2021/06/10 06:58:52;;;;;;;14.07;11.90;;;;;;;17.17;69.16;101447.38;5104119;27;20052;-52
2021/06/10 07:01:20;;;;;;;13.15;11.52;;;;;;;17.32;68.25;101453.25;5102910;27;20118;-55
2021/06/10 07:03:48;;;;;;;15.55;11.68;;;;;;;17.34;68.57;101452.31;5108471;27;20087;-52
2021/06/10 07:06:15;;;;;;;14.75;10.77;;;;;;;17.45;71.82;101454.75;5096020;28;20358;-51
2021/06/10 07:08:41;;;;;;;15.57;10.90;;;;;;;17.54;69.69;101456.31;5089064;27;20406;-51
2021/06/10 07:11:07;;;;;;;13.95;12.27;;;;;;;17.58;68.79;101457.13;5089019;28;20096;-55
2021/06/10 07:13:34;;;;;;;15.75;11.95;;;;;;;17.73;67.07;101455.94;5083055;27;20737;-52
2021/06/10 07:16:02;;;;;;;18.27;13.38;;;;;;;18.03;65.82;101455.25;5104100;27;20031;-52
2021/06/10 07:18:30;;;;;;;17.50;13.50;;;;;;;18.19;66.12;101462.81;5107455;27;20473;-52
2021/06/10 07:20:56;;;;;;;16.77;13.68;;;;;;;17.99;65.87;101468.59;5110991;27;20046;-53
2021/06/10 07:23:22;;;;;;;17.50;12.55;;;;;;;18.08;67.19;101457.78;5107127;27;20045;-52
2021/06/10 07:25:49;;;;;;;17.80;14.05;;;;;;;18.04;65.59;101456.13;5108106;27;20304;-54
2021/06/10 07:28:15;;;;;;;18.92;16.08;;;;;;;18.14;64.58;101460.31;5107225;27;20038;-52
2021/06/10 07:30:42;;;;;;;17.15;14.73;;;;;;;18.31;64.04;101461.69;5112894;27;20375;-53
2021/06/10 07:33:09;;;;;;;15.40;13.43;;;;;;;18.71;62.72;101458.88;5107254;27;20081;-55
2021/06/10 07:35:36;;;;;;;17.80;14.00;;;;;;;18.63;64.74;101460.00;5102185;27;20510;-51
2021/06/10 07:38:04;;;;;;;21.00;16.70;;;;;;;18.46;63.44;101463.09;5116945;27;20035;-53
2021/06/10 07:40:31;;;;;;;18.25;15.73;;;;;;;18.47;63.74;101468.34;5112091;27;20031;-52
2021/06/10 07:42:58;;;;;;;18.73;16.13;;;;;;;18.58;63.61;101461.88;5119096;27;20134;-52
2021/06/10 07:45:28;;;;;;;19.80;16.63;;;;;;;18.88;61.88;101461.13;5110620;27;20034;-51
2021/06/10 07:47:57;;;;;;;19.02;15.77;;;;;;;19.12;60.61;101458.72;5109133;27;20046;-53
2021/06/10 07:50:25;;;;;;;18.92;16.20;;;;;;;19.50;59.15;101461.19;5108930;27;20575;-54
2021/06/10 07:52:52;;;;;;;20.38;15.07;;;;;;;19.37;60.25;101460.66;5087446;28;20040;-52
2021/06/10 07:55:21;;;;;;;18.40;14.38;;;;;;;19.72;56.16;101467.56;5111727;27;20031;-53
2021/06/10 07:57:49;;;;;;;18.05;15.98;;;;;;;20.04;55.07;101462.22;5121183;27;20315;-52
2021/06/10 08:00:19;;;;;;;18.35;15.13;;;;;;;19.74;56.55;101464.88;5109837;27;20420;-55
2021/06/10 08:02:57;;;;;;;16.50;14.13;;;;;;;19.68;55.94;101462.41;5091532;27;20047;-51
2021/06/10 08:05:26;;;;;;;16.25;12.02;;;;;;;19.54;56.02;101460.19;5093735;27;20040;-53
2021/06/10 08:07:55;;;;;;;;;;;;;;;20.04;52.93;101465.75;5098013;28;20606;-51
2021/06/10 08:10:23;;;;;;;15.32;11.98;;;;;;;20.12;54.26;101467.28;5099210;27;20269;-53
2021/06/10 08:12:54;;;;;;;10.15;9.13;;;;;;;20.07;53.26;101470.09;5083291;28;20024;-53
2021/06/10 08:15:27;;;;;;;11.30;8.43;;;;;;;19.89;54.63;101464.44;5087632;27;20496;-52
2021/06/10 08:18:04;;;;;;;9.23;6.57;;;;;;;19.94;54.73;101466.97;5113978;27;20042;-51
2021/06/10 08:20:45;;;;;;;11.25;7.82;;;;;;;19.72;53.67;101464.06;5120742;27;20039;-55
2021/06/10 08:23:16;;;;;;;9.63;6.90;;;;;;;20.40;51.82;101464.59;5123103;27;20035;-52
2021/06/10 08:25:44;;;;;;;9.02;5.97;;;;;;;20.08;50.89;101469.19;5095021;28;20097;-53
2021/06/10 08:28:15;;;;;;;8.52;6.90;;;;;;;19.92;52.23;101463.47;5099486;28;20423;-54
2021/06/10 08:30:44;;;;;;;9.07;6.57;;;;;;;20.11;52.94;101465.56;5097455;28;20616;-52
2021/06/10 08:33:13;;;;;;;7.82;6.13;;;;;;;20.35;52.00;101461.22;5087662;28;20035;-52
2021/06/10 08:35:43;;;;;;;9.27;7.07;;;;;;;20.79;50.47;101464.19;5093384;28;20043;-52
2021/06/10 08:38:11;;;;;;;8.60;6.65;;;;;;;20.65;51.92;101451.34;5103561;27;20054;-52
2021/06/10 08:40:40;;;;;;;10.82;8.57;;;;;;;20.40;53.01;101457.50;5115573;27;20531;-54
2021/06/10 08:43:11;;;;;;;12.85;11.43;;;;;;;20.58;53.11;101456.00;5117152;27;20264;-51
2021/06/10 08:45:46;;;;;;;12.85;10.80;;;;;;;20.71;52.84;101458.28;5100409;27;20073;-55
2021/06/10 08:48:17;;;;;;;13.52;10.60;;;;;;;20.97;52.34;101456.50;5116547;27;20070;-53
2021/06/10 08:54:58;;;;;;;13.07;10.65;;;;;;;21.37;52.35;101455.91;5078267;22;20095;-84
2021/06/10 08:57:31;;;;;;;12.77;10.60;;;;;;;21.51;52.13;101459.84;5023962;28;20064;-83
2021/06/10 08:59:57;;;;;;;11.75;8.40;;;;;;;21.19;49.13;101454.78;5008087;28;20555;-83
2021/06/10 09:02:32;;;;;;;13.45;8.75;;;;;;;21.15;48.37;101457.63;5037124;28;20041;-83
2021/06/10 09:05:27;;;;;;;12.02;7.93;;;;;;;21.02;50.29;101471.38;4992893;28;20431;-84
2021/06/10 09:08:02;;;;;;;9.77;8.75;;;;;;;21.00;52.35;101481.16;5004302;28;20698;-83
2021/06/10 09:10:55;;;;;;;13.73;9.50;;;;;;;21.14;50.84;101472.69;5004478;28;20445;-84
2021/06/10 09:13:36;;;;;;;11.65;10.38;;;;;;;21.06;50.80;101483.63;5003967;28;20033;-84
2021/06/10 09:16:23;;;;;;;12.23;9.32;;;;;;;21.55;49.55;101461.50;5005541;28;20095;-83
2021/06/10 09:19:03;;;;;;;10.00;8.82;;;;;;;21.81;47.87;101462.25;4988068;28;21445;-84
2021/06/10 09:21:35;;;;;;;11.48;7.53;;;;;;;21.58;47.42;101464.88;4985980;28;20080;-82
2021/06/10 09:24:23;;;;;;;11.32;7.45;;;;;;;21.56;50.32;101460.56;5001092;28;20045;-84
2021/06/10 09:27:06;;;;;;;11.45;7.65;;;;;;;21.48;49.27;101468.81;5001293;28;20046;-83
2021/06/10 09:29:46;;;;;;;9.75;7.43;;;;;;;21.77;49.02;101462.38;4989481;28;20133;-85
2021/06/10 09:32:18;;;;;;;9.50;7.32;;;;;;;22.13;47.17;101465.47;4997987;28;20493;-84
2021/06/10 09:34:52;;;;;;;9.65;7.57;;;;;;;22.03;46.33;101460.50;4970531;28;20045;-83
2021/06/10 09:37:36;;;;;;;8.82;6.93;;;;;;;22.02;49.02;101489.84;4984314;28;20078;-83
2021/06/10 09:40:06;;;;;;;9.98;6.90;;;;;;;22.39;46.66;101467.09;4986886;28;20071;-83
2021/06/10 09:42:42;;;;;;;9.65;5.90;;;;;;;22.21;45.00;101471.31;5001738;28;20033;-84
2021/06/10 09:45:19;;;;;;;9.65;6.50;;;;;;;22.03;46.45;101468.50;4981303;28;20046;-83
2021/06/10 09:47:49;;;;;;;9.07;6.00;;;;;;;22.39;43.85;101478.59;4980435;28;20053;-85
2021/06/10 09:50:57;;;;;;;8.52;6.53;;;;;;;22.47;45.40;101474.75;5018412;28;20049;-84
2021/06/10 09:53:25;;;;;;;7.68;6.35;;;;;;;22.43;45.20;101479.31;4982790;28;20053;-84
2021/06/10 09:55:53;;;;;;;9.02;5.05;;;;;;;22.92;44.03;101489.72;4969855;28;20257;-84
2021/06/10 09:58:28;;;;;;;;;;;;;;;23.23;43.57;101475.03;5002895;28;20033;-84
2021/06/10 10:00:58;;;;;;;11.15;8.27;;;;;;;23.00;43.38;101476.91;4986192;28;19917;-85
2021/06/10 10:03:29;;;;;;;11.27;9.50;;;;;;;22.65;43.67;101483.75;5015822;28;20573;-84
2021/06/10 10:06:02;;;;;;;10.93;8.80;;;;;;;22.34;47.49;101485.06;4972693;28;20053;-84
2021/06/10 10:08:31;;;;;;;10.85;9.07;;;;;;;22.39;45.09;101477.75;4984130;28;20109;-84
2021/06/10 10:10:58;;;;;;;8.65;7.38;;;;;;;22.38;47.71;101476.84;4997760;28;20150;-84
2021/06/10 10:13:26;;;;;;;9.77;8.18;;;;;;;22.51;46.68;101482.53;4981708;28;20061;-84
2021/06/10 10:15:53;;;;;;;8.73;7.32;;;;;;;23.06;44.46;101473.97;4988951;28;20030;-85
2021/06/10 10:18:20;;;;;;;9.60;7.57;;;;;;;23.22;42.99;101484.84;4969862;28;20124;-84
2021/06/10 10:20:46;;;;;;;10.73;7.97;;;;;;;23.08;45.07;101472.09;4994634;28;20077;-85
2021/06/10 10:23:13;;;;;;;8.82;7.93;;;;;;;23.50;41.12;101467.59;4984507;28;20037;-85
2021/06/10 10:25:39;;;;;;;8.93;7.18;;;;;;;23.74;41.50;101460.22;4983590;28;20144;-86
2021/06/10 10:28:11;;;;;;;9.07;6.22;;;;;;;23.56;42.71;101463.75;4987670;28;20030;-85
2021/06/10 10:30:38;;;;;;;6.43;5.00;;;;;;;23.54;44.42;101458.50;5003570;28;20053;-85
2021/06/10 10:33:14;;;;;;;8.50;5.57;;;;;;;23.61;42.19;101459.09;4986716;28;20434;-85
2021/06/10 10:36:01;;;;;;;6.63;4.38;;;;;;;23.48;43.52;101453.44;4988381;28;20288;-85
2021/06/10 10:39:08;;;;;;;8.30;4.68;;;;;;;23.39;43.97;101451.22;5006777;28;20029;-85
2021/06/10 10:41:53;;;;;;;6.50;4.63;;;;;;;23.33;45.62;101452.38;4966916;28;20506;-84
2021/06/10 10:44:33;;;;;;;7.45;5.00;;;;;;;23.48;43.31;101448.09;5004375;28;20410;-84
2021/06/10 10:46:59;;;;;;;5.82;4.22;;;;;;;23.43;46.25;101451.00;5004509;28;20048;-84
2021/06/10 10:49:26;;;;;;;8.43;5.13;;;;;;;23.57;44.15;101453.00;5001969;28;20033;-84
2021/06/10 10:51:52;;;;;;;9.60;5.22;;;;;;;23.79;43.74;101450.19;5005804;28;20041;-84
2021/06/10 10:54:33;;;;;;;9.75;4.50;;;;;;;23.52;43.93;101440.81;5001338;28;20045;-85
2021/06/10 10:57:03;;;;;;;5.45;3.88;;;;;;;23.89;44.22;101439.09;4969735;28;20103;-85
2021/06/10 10:59:40;;;;;;;4.72;3.70;;;;;;;23.73;45.38;101452.28;4991343;28;20049;-85
2021/06/10 11:02:13;;;;;;;5.53;3.90;;;;;;;23.77;44.15;101446.75;4986676;28;20091;-85
2021/06/10 11:04:51;;;;;;;4.75;3.60;;;;;;;24.05;44.27;101453.44;5002321;28;20131;-84
2021/06/10 11:07:35;;;;;;;6.03;3.63;;;;;;;23.49;43.69;101440.97;5000860;28;20068;-83
2021/06/10 11:10:10;;;;;;;4.63;3.50;;;;;;;23.36;42.99;101454.88;5004607;28;20041;-83
2021/06/10 11:12:53;;;;;;;5.22;3.78;;;;;;;23.51;42.46;101441.75;4987570;28;20045;-84
2021/06/10 11:15:34;;;;;;;7.20;4.00;;;;;;;23.49;44.16;101436.50;5006898;28;20115;-84
2021/06/10 11:18:08;;;;;;;8.23;4.25;;;;;;;23.23;43.33;101461.69;4986218;28;20069;-84
2021/06/10 11:20:38;;;;;;;5.82;3.85;;;;;;;23.43;43.59;101439.47;4972026;28;20140;-84
2021/06/10 11:23:19;;;;;;;7.05;4.35;;;;;;;23.32;42.20;101436.41;4973261;28;20045;-84
2021/06/10 11:25:57;;;;;;;5.80;3.70;;;;;;;23.40;44.90;101428.91;4972688;28;20052;-84
2021/06/10 11:28:35;;;;;;;7.50;3.70;;;;;;;23.57;45.28;101431.66;4973382;28;20281;-85
2021/06/10 11:31:21;;;;;;;6.65;3.92;;;;;;;24.21;42.67;101439.31;5005134;28;20127;-85